createdAt,value
2022-10-25T00:00:58.574Z,11.78
2022-10-25T00:03:25.077Z,11.81
2022-10-25T00:05:51.467Z,11.84
2022-10-25T00:08:17.904Z,11.86
2022-10-25T00:10:44.311Z,11.88
2022-10-25T00:13:10.689Z,11.90
2022-10-25T00:15:37.504Z,11.92
2022-10-25T00:18:04.051Z,11.92
2022-10-25T00:20:30.497Z,11.92
2022-10-25T00:22:57.597Z,11.89
2022-10-25T00:25:24.111Z,11.88
2022-10-25T00:27:50.527Z,11.90
2022-10-25T00:30:17.096Z,11.90
2022-10-25T00:32:43.649Z,11.89
2022-10-25T00:35:10.232Z,11.88
2022-10-25T00:37:37.314Z,11.84
2022-10-25T00:40:04.692Z,11.72
2022-10-25T00:42:31.090Z,11.78
2022-10-25T00:45:01.640Z,11.77
2022-10-25T00:47:41.157Z,11.75
2022-10-25T00:50:22.844Z,11.74
2022-10-25T00:52:53.332Z,11.72
2022-10-25T00:55:24.499Z,11.69
2022-10-25T00:58:03.800Z,11.67
2022-10-25T01:00:30.302Z,11.66
2022-10-25T01:05:28.392Z,11.66
2022-10-25T01:07:54.800Z,11.66
2022-10-25T01:10:21.365Z,11.65
2022-10-25T01:12:51.275Z,11.66
2022-10-25T01:15:22.747Z,11.64
2022-10-25T01:18:07.293Z,11.59
2022-10-25T01:20:59.222Z,11.54
2022-10-25T01:23:53.696Z,11.52
2022-10-25T01:27:00.597Z,11.51
2022-10-25T01:30:00.692Z,11.52
2022-10-25T01:32:35.206Z,11.51
2022-10-25T01:35:13.794Z,11.49
2022-10-25T01:37:58.933Z,11.44
2022-10-25T01:40:34.473Z,11.37
2022-10-25T01:43:11.726Z,11.36
2022-10-25T01:45:48.993Z,11.34
2022-10-25T01:48:30.181Z,11.35
2022-10-25T01:51:05.635Z,11.34
2022-10-25T01:53:31.989Z,11.33
2022-10-25T01:56:03.917Z,11.30
2022-10-25T01:59:21.453Z,11.30
2022-10-25T02:02:04.358Z,11.29
2022-10-25T02:04:47.396Z,11.26
2022-10-25T02:07:38.521Z,11.25
2022-10-25T02:10:20.872Z,11.24
2022-10-25T02:13:02.294Z,11.27
2022-10-25T02:15:34.622Z,11.27
2022-10-25T02:18:04.539Z,11.25
2022-10-25T02:20:34.490Z,11.28
2022-10-25T02:23:04.776Z,11.29
2022-10-25T02:25:35.948Z,11.32
2022-10-25T02:28:07.039Z,11.32
2022-10-25T02:30:35.615Z,11.31
2022-10-25T02:33:02.500Z,11.30
2022-10-25T02:35:28.965Z,11.30
2022-10-25T02:37:55.333Z,11.29
2022-10-25T02:40:22.145Z,11.27
2022-10-25T02:42:48.586Z,11.29
2022-10-25T02:45:14.993Z,11.25
2022-10-25T02:47:41.397Z,11.29
2022-10-25T02:50:08.517Z,11.27
2022-10-25T02:52:34.934Z,11.27
2022-10-25T02:55:01.818Z,11.28
2022-10-25T02:57:37.823Z,11.25
2022-10-25T03:00:06.599Z,11.27
2022-10-25T03:02:33.174Z,11.26
2022-10-25T03:04:59.587Z,11.25
2022-10-25T03:07:26.001Z,11.25
2022-10-25T03:09:52.380Z,11.25
2022-10-25T03:12:18.744Z,11.24
2022-10-25T03:14:45.121Z,11.25
2022-10-25T03:17:11.716Z,11.24
2022-10-25T03:19:38.088Z,11.24
2022-10-25T03:22:04.450Z,11.24
2022-10-25T03:24:30.846Z,11.23
2022-10-25T03:26:57.231Z,11.23
2022-10-25T03:29:23.631Z,11.23
2022-10-25T03:31:50.033Z,11.22
2022-10-25T03:34:16.403Z,11.19
2022-10-25T03:36:42.857Z,11.11
2022-10-25T03:39:10.285Z,11.07
2022-10-25T03:41:36.699Z,11.01
2022-10-25T03:44:03.462Z,10.99
2022-10-25T03:46:29.855Z,10.94
2022-10-25T03:48:56.200Z,10.88
2022-10-25T03:51:22.602Z,10.85
2022-10-25T03:53:49.171Z,10.85
2022-10-25T03:56:15.565Z,10.84
2022-10-25T03:58:41.974Z,10.83
2022-10-25T04:01:09.786Z,10.83
2022-10-25T04:03:36.893Z,10.81
2022-10-25T04:06:03.281Z,10.86
2022-10-25T04:08:29.774Z,10.89
2022-10-25T04:10:56.188Z,10.95
2022-10-25T04:13:22.553Z,10.95
2022-10-25T04:15:48.996Z,11.00
2022-10-25T04:18:15.361Z,10.99
2022-10-25T04:20:41.739Z,10.96
2022-10-25T04:23:08.104Z,10.92
2022-10-25T04:25:34.573Z,10.88
2022-10-25T04:28:01.030Z,10.86
2022-10-25T04:30:27.586Z,10.84
2022-10-25T04:32:53.998Z,10.82
2022-10-25T04:35:20.669Z,10.74
2022-10-25T04:37:47.037Z,10.75
2022-10-25T04:40:13.484Z,10.71
2022-10-25T04:42:39.906Z,10.63
2022-10-25T04:45:06.664Z,10.55
2022-10-25T04:47:33.901Z,10.41
2022-10-25T04:50:00.375Z,10.49
2022-10-25T04:52:28.864Z,10.48
2022-10-25T04:54:55.712Z,10.45
2022-10-25T04:57:22.251Z,10.47
2022-10-25T04:59:48.685Z,10.51
2022-10-25T05:02:15.129Z,10.53
2022-10-25T05:04:41.858Z,10.55
2022-10-25T05:07:08.241Z,10.53
2022-10-25T05:09:34.603Z,10.52
2022-10-25T05:12:00.985Z,10.51
2022-10-25T05:14:27.349Z,10.53
2022-10-25T05:16:53.699Z,10.56
2022-10-25T05:19:20.070Z,10.58
2022-10-25T05:21:47.699Z,10.62
2022-10-25T05:24:14.092Z,10.65
2022-10-25T05:26:40.498Z,10.60
2022-10-25T05:29:10.229Z,10.58
2022-10-25T05:31:38.561Z,10.56
2022-10-25T05:34:04.945Z,10.59
2022-10-25T05:36:33.262Z,10.62
2022-10-25T05:39:03.639Z,10.66
2022-10-25T05:41:33.214Z,10.70
2022-10-25T05:44:02.593Z,10.74
2022-10-25T05:46:28.946Z,10.76
2022-10-25T05:48:55.392Z,10.74
2022-10-25T05:51:34.673Z,10.73
2022-10-25T05:54:06.195Z,10.80
2022-10-25T05:56:34.041Z,10.79
2022-10-25T05:59:10.172Z,10.79
2022-10-25T06:01:46.851Z,10.84
2022-10-25T06:04:14.487Z,10.85
2022-10-25T06:06:42.168Z,10.89
2022-10-25T06:09:09.437Z,10.90
2022-10-25T06:11:36.405Z,10.93
2022-10-25T06:14:03.746Z,10.96
2022-10-25T06:16:30.416Z,10.94
2022-10-25T06:18:56.822Z,10.99
2022-10-25T06:21:25.797Z,11.01
2022-10-25T06:23:53.120Z,11.03
2022-10-25T06:26:23.575Z,11.03
2022-10-25T06:28:55.174Z,11.06
2022-10-25T06:31:21.885Z,11.08
2022-10-25T06:33:48.403Z,11.13
2022-10-25T06:36:17.449Z,11.16
2022-10-25T06:38:45.114Z,11.17
2022-10-25T06:41:13.937Z,11.15
2022-10-25T06:43:40.402Z,11.17
2022-10-25T06:46:18.049Z,11.16
2022-10-25T06:48:44.418Z,11.15
2022-10-25T06:51:10.831Z,11.17
2022-10-25T06:53:38.353Z,11.17
2022-10-25T06:56:13.424Z,11.23
2022-10-25T06:58:41.500Z,11.25
2022-10-25T07:01:11.155Z,11.30
2022-10-25T07:03:37.771Z,11.35
2022-10-25T07:06:06.294Z,11.39
2022-10-25T07:08:34.050Z,11.41
2022-10-25T07:11:01.950Z,11.48
2022-10-25T07:13:30.252Z,11.53
2022-10-25T07:16:07.907Z,11.61
2022-10-25T07:18:35.589Z,11.66
2022-10-25T07:21:04.415Z,11.71
2022-10-25T07:23:31.298Z,11.75
2022-10-25T07:25:58.387Z,11.81
2022-10-25T07:28:25.064Z,11.85
2022-10-25T07:30:51.857Z,11.92
2022-10-25T07:33:20.657Z,11.96
2022-10-25T07:35:59.147Z,11.97
2022-10-25T07:38:32.862Z,11.95
2022-10-25T07:40:59.812Z,12.01
2022-10-25T07:43:27.256Z,12.03
2022-10-25T07:45:54.565Z,12.07
2022-10-25T07:48:21.176Z,12.10
2022-10-25T07:50:47.913Z,12.12
2022-10-25T07:53:14.260Z,12.16
2022-10-25T07:55:40.776Z,12.14
2022-10-25T07:58:09.735Z,12.17
2022-10-25T08:00:36.749Z,12.22
2022-10-25T08:03:04.151Z,12.29
2022-10-25T08:05:30.649Z,12.36
2022-10-25T08:07:56.998Z,12.44
2022-10-25T08:10:23.392Z,12.50
2022-10-25T08:12:50.334Z,12.59
2022-10-25T08:15:18.110Z,12.67
2022-10-25T08:17:44.993Z,12.78
2022-10-25T08:20:11.676Z,12.90
2022-10-25T08:22:38.305Z,13.00
2022-10-25T08:25:05.316Z,13.10
2022-10-25T08:27:32.251Z,13.18
2022-10-25T08:29:58.634Z,13.23
2022-10-25T08:32:25.017Z,13.24
2022-10-25T08:34:51.423Z,13.32
2022-10-25T08:37:17.873Z,13.39
2022-10-25T08:39:44.911Z,13.49
2022-10-25T08:42:24.004Z,13.57
2022-10-25T08:45:21.018Z,13.64
2022-10-25T08:47:53.318Z,13.71
2022-10-25T08:50:37.587Z,13.78
2022-10-25T08:53:08.916Z,13.85
2022-10-25T08:55:41.644Z,13.91
2022-10-25T08:59:02.647Z,14.02
2022-10-25T09:01:36.884Z,14.12
2022-10-25T09:04:03.415Z,14.25
2022-10-25T09:06:44.524Z,14.31
2022-10-25T09:09:20.202Z,14.40
2022-10-25T09:12:05.133Z,14.53
2022-10-25T09:14:58.985Z,14.59
2022-10-25T09:17:48.522Z,14.71
2022-10-25T09:20:24.868Z,14.80
2022-10-25T09:23:00.752Z,14.93
2022-10-25T09:25:39.463Z,15.07
2022-10-25T09:28:19.062Z,15.17
2022-10-25T09:30:46.163Z,15.29
2022-10-25T09:33:18.094Z,15.43
2022-10-25T09:35:48.443Z,15.50
2022-10-25T09:38:33.285Z,15.61
2022-10-25T09:41:11.514Z,15.72
2022-10-25T09:43:49.041Z,15.76
2022-10-25T09:46:22.017Z,15.79
2022-10-25T09:49:25.993Z,15.84
2022-10-25T09:52:30.173Z,15.91
2022-10-25T09:55:16.017Z,15.98
2022-10-25T09:57:42.896Z,16.00
2022-10-25T10:00:13.839Z,16.10
2022-10-25T10:02:41.239Z,16.20
2022-10-25T10:05:22.354Z,16.23
2022-10-25T10:07:50.644Z,16.28
2022-10-25T10:10:24.853Z,16.29
2022-10-25T10:13:01.220Z,16.34
2022-10-25T10:15:34.949Z,16.42
2022-10-25T10:18:36.858Z,16.50
2022-10-25T10:21:12.193Z,16.55
2022-10-25T10:23:41.307Z,16.65
2022-10-25T10:26:35.717Z,16.73
2022-10-25T10:29:07.903Z,16.81
2022-10-25T10:31:41.117Z,16.94
2022-10-25T10:34:24.027Z,17.09
2022-10-25T10:37:16.516Z,17.23
2022-10-25T10:39:59.429Z,17.34
2022-10-25T10:45:08.989Z,17.60
2022-10-25T10:47:39.903Z,17.79
2022-10-25T10:50:25.547Z,17.98
2022-10-25T10:53:04.947Z,18.07
2022-10-25T10:55:33.109Z,18.10
2022-10-25T10:58:17.296Z,18.17
2022-10-25T11:00:58.198Z,18.28
2022-10-25T11:03:53.446Z,18.33
2022-10-25T11:06:31.907Z,18.45
2022-10-25T11:09:25.420Z,18.60
2022-10-25T11:12:14.801Z,18.70
2022-10-25T11:14:41.387Z,18.77
2022-10-25T11:17:15.137Z,18.84
2022-10-25T11:20:19.226Z,19.04
2022-10-25T11:23:13.643Z,19.18
2022-10-25T11:26:02.288Z,19.19
2022-10-25T11:28:59.586Z,19.36
2022-10-25T11:31:56.733Z,19.47
2022-10-25T11:34:29.049Z,19.68
2022-10-25T11:37:20.727Z,19.79
2022-10-25T11:40:07.884Z,19.78
2022-10-25T11:42:59.801Z,19.62
2022-10-25T11:45:42.904Z,19.66
2022-10-25T11:48:54.584Z,19.69
2022-10-25T11:51:44.290Z,19.78
2022-10-25T11:54:39.608Z,19.57
2022-10-25T11:57:23.097Z,19.57
2022-10-25T12:00:16.116Z,19.92
2022-10-25T12:03:12.725Z,20.16
2022-10-25T12:05:39.063Z,20.18
2022-10-25T12:08:26.370Z,20.15
2022-10-25T12:11:10.435Z,20.24
2022-10-25T12:13:42.537Z,20.28
2022-10-25T12:16:15.586Z,20.37
2022-10-25T12:18:48.044Z,20.59
2022-10-25T12:21:27.762Z,20.93
2022-10-25T12:23:55.061Z,21.16
2022-10-25T12:26:34.784Z,21.35
2022-10-25T12:29:11.890Z,21.40
2022-10-25T12:31:42.400Z,21.20
2022-10-25T12:34:47.638Z,21.40
2022-10-25T12:37:28.552Z,21.74
2022-10-25T12:39:56.310Z,21.84
2022-10-25T12:43:03.323Z,21.93
2022-10-25T12:45:57.471Z,22.19
2022-10-25T12:48:59.144Z,22.08
2022-10-25T12:51:45.946Z,21.97
2022-10-25T12:54:31.377Z,22.11
2022-10-25T12:57:17.689Z,22.21
2022-10-25T13:00:01.757Z,22.29
2022-10-25T13:03:07.472Z,22.53
2022-10-25T13:06:07.762Z,22.65
2022-10-25T13:08:34.824Z,22.58
2022-10-25T13:11:06.994Z,22.44
2022-10-25T13:13:48.660Z,22.22
2022-10-25T13:16:24.358Z,22.03
2022-10-25T13:19:49.731Z,22.10
2022-10-25T13:22:38.917Z,22.25
2022-10-25T13:25:17.702Z,22.21
2022-10-25T13:28:16.471Z,22.48
2022-10-25T13:30:44.094Z,22.14
2022-10-25T13:33:21.453Z,21.97
2022-10-25T13:35:50.716Z,21.98
2022-10-25T13:38:36.556Z,22.22
2022-10-25T13:41:11.790Z,22.61
2022-10-25T13:44:01.424Z,22.78
2022-10-25T13:46:36.288Z,22.60
2022-10-25T13:49:24.864Z,22.51
2022-10-25T13:51:56.101Z,22.51
2022-10-25T13:54:22.802Z,22.70
2022-10-25T13:56:52.207Z,22.76
2022-10-25T13:59:47.866Z,22.86
2022-10-25T14:02:20.444Z,22.95
2022-10-25T14:04:47.169Z,23.05
2022-10-25T14:07:41.756Z,23.03
2022-10-25T14:10:23.049Z,23.08
2022-10-25T14:12:53.444Z,23.00
2022-10-25T14:15:36.325Z,23.09
2022-10-25T14:18:08.438Z,23.21
2022-10-25T14:20:36.608Z,23.31
2022-10-25T14:23:06.552Z,23.45
2022-10-25T14:26:03.551Z,23.37
2022-10-25T14:28:32.448Z,23.42
2022-10-25T14:31:04.256Z,23.40
2022-10-25T14:33:35.533Z,23.41
2022-10-25T14:36:25.888Z,23.42
2022-10-25T14:38:55.177Z,23.33
2022-10-25T14:41:33.070Z,23.49
2022-10-25T14:44:00.470Z,23.65
2022-10-25T14:46:30.049Z,23.88
2022-10-25T14:48:58.426Z,24.09
2022-10-25T14:51:31.717Z,24.26
2022-10-25T14:54:00.872Z,24.33
2022-10-25T14:56:31.495Z,24.29
2022-10-25T14:58:59.431Z,24.03
2022-10-25T15:01:26.334Z,23.82
2022-10-25T15:03:56.218Z,23.75
2022-10-25T15:06:24.992Z,23.83
2022-10-25T15:09:17.611Z,23.76
2022-10-25T15:12:03.841Z,24.09
2022-10-25T15:14:30.942Z,24.97
2022-10-25T15:17:16.436Z,25.34
2022-10-25T15:20:06.570Z,24.85
2022-10-25T15:22:42.885Z,24.26
2022-10-25T15:25:27.709Z,23.56
2022-10-25T15:27:54.704Z,23.34
2022-10-25T15:30:45.343Z,23.74
2022-10-25T15:33:18.129Z,23.70
2022-10-25T15:36:03.667Z,23.25
2022-10-25T15:39:05.323Z,22.83
2022-10-25T15:41:22.603Z,22.45
2022-10-25T15:43:49.133Z,22.07
2022-10-25T15:46:21.563Z,21.60
2022-10-25T15:48:48.706Z,21.10
2022-10-25T15:51:15.126Z,20.60
2022-10-25T15:53:41.493Z,20.16
2022-10-25T15:56:13.186Z,19.78
2022-10-25T15:58:39.562Z,19.43
2022-10-25T16:01:06.698Z,19.09
2022-10-25T16:03:33.140Z,18.77
2022-10-25T16:05:59.572Z,18.48
2022-10-25T16:08:26.021Z,18.20
2022-10-25T16:10:53.185Z,17.94
2022-10-25T16:13:33.154Z,17.67
2022-10-25T16:16:04.601Z,17.40
2022-10-25T16:18:38.335Z,17.15
2022-10-25T16:21:04.772Z,16.89
2022-10-25T16:23:31.132Z,16.69
2022-10-25T16:25:58.088Z,16.49
2022-10-25T16:30:55.835Z,16.13
2022-10-25T16:33:22.189Z,16.03
2022-10-25T16:35:48.587Z,15.92
2022-10-25T16:38:16.507Z,15.81
2022-10-25T16:40:42.897Z,15.69
2022-10-25T16:43:12.241Z,15.61
2022-10-25T16:45:38.634Z,15.48
2022-10-25T16:48:05.863Z,15.43
2022-10-25T16:50:33.835Z,15.36
2022-10-25T16:53:03.654Z,15.29
2022-10-25T16:55:31.198Z,15.22
2022-10-25T16:57:58.854Z,15.16
2022-10-25T17:00:26.660Z,15.09
2022-10-25T17:02:53.016Z,15.06
2022-10-25T17:05:25.194Z,15.02
2022-10-25T17:07:52.380Z,14.98
2022-10-25T17:10:20.855Z,14.93
2022-10-25T17:12:52.168Z,14.89
2022-10-25T17:15:20.391Z,14.82
2022-10-25T17:17:47.346Z,14.73
2022-10-25T17:20:15.978Z,14.67
2022-10-25T17:22:42.479Z,14.63
2022-10-25T17:25:09.726Z,14.63
2022-10-25T17:27:38.040Z,14.62
2022-10-25T17:30:05.972Z,14.60
2022-10-25T17:32:32.367Z,14.57
2022-10-25T17:34:58.759Z,14.54
2022-10-25T17:37:25.228Z,14.53
2022-10-25T17:39:51.620Z,14.50
2022-10-25T17:42:19.261Z,14.47
2022-10-25T17:44:46.064Z,14.44
2022-10-25T17:47:14.119Z,14.41
2022-10-25T17:49:40.826Z,14.36
2022-10-25T17:52:07.864Z,14.33
2022-10-25T17:54:34.415Z,14.29
2022-10-25T17:57:02.789Z,14.29
2022-10-25T17:59:30.174Z,14.26
2022-10-25T18:01:57.610Z,14.14
2022-10-25T18:04:24.324Z,14.04
2022-10-25T18:06:50.883Z,14.00
2022-10-25T18:09:17.787Z,13.91
2022-10-25T18:11:44.786Z,13.87
2022-10-25T18:14:11.168Z,13.87
2022-10-25T18:16:37.598Z,13.83
2022-10-25T18:19:05.790Z,13.82
2022-10-25T18:21:33.110Z,13.80
2022-10-25T18:24:02.305Z,13.77
2022-10-25T18:26:29.489Z,13.73
2022-10-25T18:28:57.813Z,13.72
2022-10-25T18:31:26.912Z,13.60
2022-10-25T18:33:59.138Z,13.66
2022-10-25T18:36:27.375Z,13.61
2022-10-25T18:38:54.503Z,13.59
2022-10-25T18:41:29.653Z,13.59
2022-10-25T18:43:57.041Z,13.58
2022-10-25T18:46:24.853Z,13.52
2022-10-25T18:48:54.348Z,13.54
2022-10-25T18:51:22.208Z,13.53
2022-10-25T18:53:53.125Z,13.49
2022-10-25T18:56:21.984Z,13.44
2022-10-25T18:58:49.003Z,13.37
2022-10-25T19:01:18.033Z,13.37
2022-10-25T19:03:44.566Z,13.35
2022-10-25T19:06:11.077Z,13.33
2022-10-25T19:08:37.957Z,13.29
2022-10-25T19:11:10.261Z,13.26
2022-10-25T19:13:36.869Z,13.27
2022-10-25T19:16:03.874Z,13.27
2022-10-25T19:18:33.240Z,13.24
2022-10-25T19:21:04.913Z,13.26
2022-10-25T19:23:31.556Z,13.23
2022-10-25T19:26:02.619Z,13.17
2022-10-25T19:28:29.122Z,13.15
2022-10-25T19:30:55.472Z,13.14
2022-10-25T19:33:21.851Z,13.14
2022-10-25T19:35:48.221Z,13.09
2022-10-25T19:38:14.582Z,13.03
2022-10-25T19:40:44.975Z,13.01
2022-10-25T19:43:13.921Z,12.95
2022-10-25T19:45:42.276Z,12.99
2022-10-25T19:48:08.608Z,12.97
2022-10-25T19:50:35.001Z,12.96
2022-10-25T19:53:01.356Z,12.96
2022-10-25T19:55:27.738Z,12.92
2022-10-25T19:57:54.113Z,12.84
2022-10-25T20:00:20.626Z,12.78
2022-10-25T20:02:46.994Z,12.75
2022-10-25T20:05:13.427Z,12.76
2022-10-25T20:07:39.844Z,12.73
2022-10-25T20:10:06.694Z,12.71
2022-10-25T20:12:33.068Z,12.70
2022-10-25T20:15:00.507Z,12.66
2022-10-25T20:17:27.062Z,12.64
2022-10-25T20:19:53.454Z,12.63
2022-10-25T20:22:19.886Z,12.61
2022-10-25T20:24:46.364Z,12.59
2022-10-25T20:27:12.785Z,12.57
2022-10-25T20:29:39.979Z,12.54
2022-10-25T20:32:06.353Z,12.52
2022-10-25T20:34:35.016Z,12.49
2022-10-25T20:37:03.685Z,12.44
2022-10-25T20:39:30.139Z,12.43
2022-10-25T20:41:56.588Z,12.42
2022-10-25T20:44:23.045Z,12.41
2022-10-25T20:46:50.331Z,12.43
2022-10-25T20:49:16.787Z,12.42
2022-10-25T20:51:43.233Z,12.42
2022-10-25T20:54:10.056Z,12.42
2022-10-25T20:56:37.149Z,12.43
2022-10-25T20:59:04.086Z,12.42
2022-10-25T21:01:30.586Z,12.42
2022-10-25T21:03:57.063Z,12.40
2022-10-25T21:06:24.254Z,12.39
2022-10-25T21:08:50.683Z,12.40
2022-10-25T21:11:17.090Z,12.41
2022-10-25T21:13:43.451Z,12.40
2022-10-25T21:16:12.461Z,12.37
2022-10-25T21:18:39.155Z,12.35
2022-10-25T21:21:08.161Z,12.37
2022-10-25T21:23:35.085Z,12.37
2022-10-25T21:26:03.884Z,12.35
2022-10-25T21:28:36.467Z,12.36
2022-10-25T21:31:08.238Z,12.24
2022-10-25T21:33:34.738Z,12.17
2022-10-25T21:36:20.471Z,12.14
2022-10-25T21:38:47.095Z,12.08
2022-10-25T21:41:16.805Z,12.05
2022-10-25T21:43:45.170Z,11.98
2022-10-25T21:46:12.926Z,11.92
2022-10-25T21:48:39.310Z,11.85
2022-10-25T21:51:06.350Z,11.77
2022-10-25T21:53:32.829Z,11.74
2022-10-25T21:56:20.268Z,11.74
2022-10-25T21:58:48.894Z,11.73
2022-10-25T22:01:18.244Z,11.73
2022-10-25T22:03:44.778Z,11.74
2022-10-25T22:06:13.673Z,11.75
2022-10-25T22:08:40.641Z,11.78
2022-10-25T22:11:11.139Z,11.78
2022-10-25T22:13:38.477Z,11.77
2022-10-25T22:16:10.657Z,11.79
2022-10-25T22:18:37.375Z,11.83
2022-10-25T22:21:07.154Z,11.87
2022-10-25T22:23:34.434Z,11.92
2022-10-25T22:26:06.388Z,11.88
2022-10-25T22:28:36.717Z,11.87
2022-10-25T22:31:11.837Z,11.90
2022-10-25T22:33:38.645Z,11.93
2022-10-25T22:36:13.497Z,11.95
2022-10-25T22:38:40.202Z,11.88
2022-10-25T22:41:10.144Z,11.88
2022-10-25T22:43:38.317Z,11.96
2022-10-25T22:46:07.022Z,12.01
2022-10-25T22:48:35.364Z,12.09
2022-10-25T22:51:02.059Z,12.13
2022-10-25T22:53:29.256Z,12.20
2022-10-25T22:56:00.906Z,12.21
2022-10-25T22:58:28.703Z,12.33
2022-10-25T23:01:10.132Z,12.45
2022-10-25T23:03:37.805Z,12.55
2022-10-25T23:06:05.795Z,12.59
2022-10-25T23:08:32.700Z,12.62
2022-10-25T23:11:04.517Z,12.67
2022-10-25T23:13:32.259Z,12.66
2022-10-25T23:15:58.946Z,12.69
2022-10-25T23:18:25.904Z,12.73
2022-10-25T23:20:54.442Z,12.70
2022-10-25T23:23:21.634Z,12.72
2022-10-25T23:25:48.593Z,12.74
2022-10-25T23:28:14.970Z,12.70
2022-10-25T23:30:42.869Z,12.64
2022-10-25T23:33:11.638Z,12.62
2022-10-25T23:35:40.822Z,12.59
2022-10-25T23:38:10.879Z,12.56
2022-10-25T23:40:37.247Z,12.54
2022-10-25T23:43:03.630Z,12.54
2022-10-25T23:45:32.074Z,12.54
2022-10-25T23:47:58.742Z,12.56
2022-10-25T23:50:25.173Z,12.56
2022-10-25T23:52:51.809Z,12.55
2022-10-25T23:55:18.378Z,12.58
2022-10-25T23:57:44.733Z,12.59
